Time;durP1;ratioP1;P1;durP2;ratioP2;P2;SDS_P1;SDS_P2;PMS_P1;PMS_P2;Temp;Humidity;BMP_temperature;BMP_pressure;BME280_temperature;BME280_humidity;BME280_pressure;Samples;Min_cycle;Max_cycle;Signal;HPM_P1;HPM_P2
2024/03/20 00:02:21;;;;;;;;;;;;;;;1.53;72.74;100239.22;5076283;28;20573;-67
2024/03/20 00:04:49;;;;;;;3.08;2.83;;;;;;;1.32;72.65;100223.16;5075954;28;19969;-68
2024/03/20 00:07:17;;;;;;;0.90;0.90;;;;;;;1.35;72.20;100241.78;5092692;28;20032;-68
2024/03/20 00:09:45;;;;;;;7.97;3.10;;;;;;;1.35;72.58;100234.22;5075703;28;20409;-67
2024/03/20 00:12:13;;;;;;;5.05;4.43;;;;;;;1.27;73.03;100247.28;5092831;28;20040;-66
2024/03/20 00:14:40;;;;;;;2.78;2.58;;;;;;;1.22;72.62;100242.00;5079467;28;20044;-67
2024/03/20 00:17:08;;;;;;;1.55;1.45;;;;;;;1.11;73.19;100219.69;5072234;28;20044;-66
2024/03/20 00:19:37;;;;;;;2.65;2.42;;;;;;;1.23;73.57;100238.72;5055865;28;20059;-66
2024/03/20 00:22:05;;;;;;;2.15;1.95;;;;;;;1.24;73.33;100240.44;5072460;28;20127;-67
2024/03/20 00:24:33;;;;;;;4.97;3.33;;;;;;;1.26;73.08;100241.38;5072409;28;20529;-66
2024/03/20 00:27:02;;;;;;;2.35;2.20;;;;;;;1.22;73.40;100216.88;5072076;28;20037;-66
2024/03/20 00:29:29;;;;;;;1.00;0.95;;;;;;;1.33;73.29;100245.88;5072426;28;20052;-67
2024/03/20 00:31:57;;;;;;;6.65;3.80;;;;;;;1.38;73.11;100242.69;5072371;28;20045;-66
2024/03/20 00:34:28;;;;;;;5.85;1.58;;;;;;;1.32;73.43;100234.09;5055943;28;20037;-66
2024/03/20 00:36:57;;;;;;;5.25;3.17;;;;;;;1.43;73.62;100241.25;5055570;28;20045;-67
2024/03/20 00:39:25;;;;;;;2.22;2.03;;;;;;;1.44;73.34;100243.00;5072378;28;20055;-67
2024/03/20 00:41:53;;;;;;;1.38;1.27;;;;;;;1.28;72.99;100227.22;5072849;28;20045;-67
2024/03/20 00:44:21;;;;;;;1.33;1.25;;;;;;;1.24;72.85;100240.44;5054544;28;20399;-66
2024/03/20 00:46:49;;;;;;;2.00;1.80;;;;;;;1.12;72.93;100239.91;5038900;28;20040;-66
2024/03/20 00:49:16;;;;;;;8.90;3.50;;;;;;;1.08;73.23;100245.56;5071952;28;20033;-66
2024/03/20 00:51:44;;;;;;;1.88;1.77;;;;;;;1.04;73.42;100242.84;5071857;28;20098;-66
2024/03/20 00:54:14;;;;;;;1.35;1.25;;;;;;;1.05;73.32;100240.41;5072124;28;20082;-67
2024/03/20 00:56:42;;;;;;;2.72;2.28;;;;;;;1.03;73.46;100239.44;5071628;28;20056;-67
2024/03/20 00:59:09;;;;;;;2.70;2.50;;;;;;;1.00;73.57;100234.31;5055381;28;20055;-67
2024/03/20 01:01:37;;;;;;;1.05;1.00;;;;;;;0.94;73.89;100226.47;5072388;28;20094;-67
2024/03/20 01:04:05;;;;;;;4.07;3.67;;;;;;;0.97;73.83;100239.19;5072048;28;20036;-67
2024/03/20 01:06:33;;;;;;;1.88;1.77;;;;;;;0.97;73.89;100236.66;5072190;28;20147;-67
2024/03/20 01:09:01;;;;;;;2.15;1.95;;;;;;;1.04;73.87;100231.13;5071760;28;20051;-67
2024/03/20 01:11:31;;;;;;;4.15;3.10;;;;;;;1.01;74.07;100230.97;5072295;28;20053;-67
2024/03/20 01:13:59;;;;;;;1.30;1.27;;;;;;;0.98;73.99;100223.34;5071958;28;20098;-67
2024/03/20 01:16:28;;;;;;;2.95;2.75;;;;;;;1.00;74.37;100224.25;5055286;28;20115;-67
2024/03/20 01:18:56;;;;;;;0.90;0.88;;;;;;;1.01;74.01;100223.44;5055281;28;20441;-67
2024/03/20 01:21:24;;;;;;;2.80;2.53;;;;;;;0.91;73.70;100213.75;5071567;28;20037;-67
2024/03/20 01:23:50;;;;;;;2.28;2.08;;;;;;;1.00;73.64;100219.22;5071870;28;20044;-67
2024/03/20 01:26:19;;;;;;;1.58;1.42;;;;;;;0.99;73.68;100217.50;5071828;28;20049;-67
2024/03/20 01:28:51;;;;;;;2.00;1.45;;;;;;;0.93;73.65;100216.38;5074538;28;20082;-67
2024/03/20 01:31:19;;;;;;;1.00;0.90;;;;;;;0.77;73.58;100194.69;5075422;28;20049;-67
2024/03/20 01:33:47;;;;;;;9.75;2.35;;;;;;;0.83;73.72;100220.09;5075008;28;20090;-67
2024/03/20 01:36:15;;;;;;;0.85;0.85;;;;;;;0.67;73.84;100197.59;5074871;28;20522;-67
2024/03/20 01:38:43;;;;;;;1.95;1.80;;;;;;;0.79;73.52;100213.22;5075150;28;20043;-67
2024/03/20 01:41:10;;;;;;;0.80;0.80;;;;;;;0.76;74.04;100223.13;5058443;28;20075;-67
2024/03/20 01:43:38;;;;;;;1.52;1.42;;;;;;;0.79;74.18;100218.25;5075173;28;20036;-67
2024/03/20 01:46:26;;;;;;;1.98;1.15;;;;;;;0.94;74.57;100218.94;5074715;28;20041;-67
2024/03/20 01:48:55;;;;;;;0.95;0.88;;;;;;;1.06;74.34;100224.53;5075247;28;20506;-67
2024/03/20 01:51:22;;;;;;;1.50;1.30;;;;;;;1.07;73.69;100220.34;5075380;28;20064;-67
2024/03/20 01:53:50;;;;;;;0.60;0.60;;;;;;;1.04;73.94;100218.56;5074937;28;20075;-67
2024/03/20 01:56:18;;;;;;;1.95;1.83;;;;;;;1.08;73.63;100220.41;5074431;28;20071;-67
2024/03/20 01:58:46;;;;;;;0.82;0.82;;;;;;;1.06;73.52;100214.47;5058096;28;20059;-67
2024/03/20 02:01:15;;;;;;;0.73;0.73;;;;;;;0.98;73.62;100214.94;5074824;28;20062;-67
2024/03/20 02:03:44;;;;;;;1.23;1.20;;;;;;;0.97;73.48;100219.09;5074859;28;20036;-67
2024/03/20 02:06:21;;;;;;;4.87;2.40;;;;;;;0.97;73.90;100213.19;5074499;28;20499;-67
2024/03/20 02:08:50;;;;;;;2.65;2.00;;;;;;;0.87;74.02;100196.84;5074886;28;20471;-67
2024/03/20 02:11:18;;;;;;;4.18;1.75;;;;;;;0.91;73.85;100201.19;5074627;28;20567;-67
2024/03/20 02:13:46;;;;;;;0.77;0.75;;;;;;;0.95;73.54;100215.66;5074296;28;20040;-67
2024/03/20 02:16:15;;;;;;;2.42;2.08;;;;;;;0.97;73.92;100214.06;5074509;28;20135;-67
2024/03/20 02:18:44;;;;;;;1.42;1.33;;;;;;;0.93;74.16;100203.81;5057589;28;20041;-67
2024/03/20 02:21:14;;;;;;;4.22;3.38;;;;;;;1.00;73.52;100219.22;5074383;28;20081;-67
2024/03/20 02:23:42;;;;;;;1.50;1.40;;;;;;;0.95;74.10;100225.69;5074302;28;20044;-67
2024/03/20 02:26:11;;;;;;;6.35;2.28;;;;;;;0.87;73.31;100221.97;5074602;28;20041;-67
2024/03/20 02:28:40;;;;;;;0.80;0.80;;;;;;;0.87;73.97;100219.44;5074344;28;20056;-67
2024/03/20 02:31:09;;;;;;;1.67;1.52;;;;;;;0.87;73.79;100216.94;5073846;28;20044;-67
2024/03/20 02:33:39;;;;;;;2.28;1.48;;;;;;;0.82;73.95;100223.41;5057659;28;20040;-67
2024/03/20 02:36:07;;;;;;;3.40;2.58;;;;;;;0.78;74.18;100216.53;5057146;28;20490;-67
2024/03/20 02:38:38;;;;;;;2.70;2.50;;;;;;;0.78;74.10;100219.03;5074069;28;20072;-67
2024/03/20 02:41:07;;;;;;;2.97;2.78;;;;;;;0.78;73.86;100221.53;5057364;28;20049;-67
2024/03/20 02:43:35;;;;;;;3.72;1.77;;;;;;;0.71;74.04;100219.53;5073704;28;20048;-67
2024/03/20 02:46:03;;;;;;;3.47;3.28;;;;;;;0.62;74.16;100219.94;5073897;28;20059;-67
2024/03/20 02:48:34;;;;;;;3.22;1.48;;;;;;;0.63;74.07;100213.28;5056963;28;20032;-68
2024/03/20 02:51:02;;;;;;;1.85;1.38;;;;;;;0.61;73.70;100217.38;5074002;28;20049;-67
2024/03/20 02:53:30;;;;;;;1.03;1.03;;;;;;;0.51;74.04;100211.06;5073842;28;20044;-67
2024/03/20 02:56:00;;;;;;;2.05;1.95;;;;;;;0.50;74.22;100223.56;5056895;28;20410;-68
2024/03/20 02:58:27;;;;;;;3.65;2.97;;;;;;;0.46;74.66;100221.66;5056943;28;20090;-68
2024/03/20 03:00:56;;;;;;;0.67;0.67;;;;;;;0.41;74.46;100223.97;5057156;28;20513;-67
2024/03/20 03:03:24;;;;;;;2.38;2.17;;;;;;;0.35;74.67;100212.78;5073574;28;20045;-68
2024/03/20 03:05:51;;;;;;;0.52;0.52;;;;;;;0.29;74.62;100194.94;5073535;28;20045;-67
2024/03/20 03:08:19;;;;;;;0.88;0.88;;;;;;;0.46;74.56;100217.50;5073450;28;20047;-68
2024/03/20 03:10:47;;;;;;;1.63;1.50;;;;;;;0.45;74.68;100218.31;5056780;28;20041;-68
2024/03/20 03:13:16;;;;;;;2.65;2.45;;;;;;;0.45;74.80;100212.44;5073132;28;20119;-67
2024/03/20 03:15:44;;;;;;;0.88;0.88;;;;;;;0.45;74.89;100212.44;5056408;28;20036;-68
2024/03/20 03:18:12;;;;;;;2.08;1.90;;;;;;;0.46;74.98;100211.63;5056569;28;20032;-68
2024/03/20 03:20:42;;;;;;;1.80;1.70;;;;;;;0.34;75.19;100201.00;5057477;28;20045;-68
2024/03/20 03:23:10;;;;;;;2.33;2.17;;;;;;;0.33;74.54;100209.34;5056608;28;20051;-67
2024/03/20 03:25:39;;;;;;;0.80;0.80;;;;;;;0.27;75.01;100209.88;5056475;28;20040;-67
2024/03/20 03:28:07;;;;;;;1.23;1.13;;;;;;;0.29;74.93;100213.31;5073108;28;20039;-67
2024/03/20 03:30:36;;;;;;;1.00;1.00;;;;;;;0.42;75.50;100215.66;5056397;28;20049;-68
2024/03/20 03:33:04;;;;;;;2.10;0.70;;;;;;;0.53;75.33;100218.66;5072787;28;20036;-68
2024/03/20 03:35:32;;;;;;;0.70;0.70;;;;;;;0.56;75.21;100214.66;5073112;28;20086;-68
2024/03/20 03:38:00;;;;;;;3.60;2.00;;;;;;;0.62;75.25;100221.63;5072743;28;20494;-68
2024/03/20 03:40:28;;;;;;;3.03;2.75;;;;;;;0.68;75.08;100216.88;5072654;28;20406;-68
2024/03/20 03:42:56;;;;;;;0.93;0.90;;;;;;;0.71;75.11;100218.66;5072803;28;20037;-68
2024/03/20 03:45:23;;;;;;;2.15;2.03;;;;;;;0.66;74.71;100218.47;5072599;28;20375;-68
2024/03/20 03:47:53;;;;;;;2.05;1.38;;;;;;;0.71;74.85;100224.56;5039464;28;20040;-68
2024/03/20 03:50:21;;;;;;;8.18;3.10;;;;;;;0.64;74.63;100220.03;5055499;28;20041;-68
2024/03/20 03:52:49;;;;;;;2.80;2.42;;;;;;;0.71;75.05;100224.56;5039494;28;20049;-68
2024/03/20 03:55:17;;;;;;;3.45;3.15;;;;;;;0.71;74.75;100229.59;5072353;28;20426;-68
2024/03/20 03:57:44;;;;;;;0.63;0.63;;;;;;;0.67;74.51;100227.72;5072728;28;20094;-68
2024/03/20 04:00:13;;;;;;;1.67;1.58;;;;;;;0.47;74.75;100203.31;5072629;28;20502;-68
2024/03/20 04:02:42;;;;;;;7.05;4.05;;;;;;;0.54;74.75;100230.44;5072674;28;20040;-68
2024/03/20 04:05:11;;;;;;;1.27;1.17;;;;;;;0.50;74.39;100231.09;5039299;28;20045;-68
2024/03/20 04:07:39;;;;;;;2.40;2.20;;;;;;;0.43;74.67;100239.13;5072564;28;20041;-67
2024/03/20 04:10:08;;;;;;;0.80;0.80;;;;;;;0.40;74.62;100241.47;5055967;28;20041;-68
2024/03/20 04:12:35;;;;;;;1.15;1.05;;;;;;;0.43;74.94;100236.59;5072353;28;20032;-68
2024/03/20 04:15:03;;;;;;;1.40;1.33;;;;;;;0.48;74.92;100235.19;5055726;28;20094;-68
2024/03/20 04:17:31;;;;;;;3.30;3.03;;;;;;;0.48;74.96;100230.16;5072242;28;20044;-68
2024/03/20 04:19:59;;;;;;;2.15;0.85;;;;;;;0.46;74.89;100236.72;5072201;28;20051;-68
2024/03/20 04:22:28;;;;;;;1.98;1.42;;;;;;;0.28;74.85;100205.75;5073041;28;20513;-68
2024/03/20 04:24:56;;;;;;;1.70;1.60;;;;;;;0.48;74.83;100245.22;5072260;28;20037;-67
2024/03/20 04:27:25;;;;;;;2.50;2.35;;;;;;;0.46;74.68;100246.78;5072488;28;20086;-68
2024/03/20 04:29:53;;;;;;;3.05;1.33;;;;;;;0.38;74.78;100248.06;5072142;28;20040;-68
2024/03/20 04:32:20;;;;;;;5.28;2.85;;;;;;;0.36;74.85;100254.66;5072716;28;20045;-68
2024/03/20 04:34:48;;;;;;;2.28;2.08;;;;;;;0.36;74.92;100249.66;5072284;28;20036;-68
2024/03/20 04:37:16;;;;;;;1.45;1.35;;;;;;;0.40;74.53;100241.47;5072645;28;20064;-68
2024/03/20 04:39:45;;;;;;;2.78;2.33;;;;;;;0.43;74.42;100249.16;5072310;28;20045;-68
2024/03/20 04:42:13;;;;;;;0.65;0.63;;;;;;;0.35;74.38;100250.41;5055321;28;20491;-68
2024/03/20 04:44:41;;;;;;;2.45;2.25;;;;;;;0.16;74.79;100237.75;5072244;28;20041;-68
2024/03/20 04:47:09;;;;;;;2.28;2.13;;;;;;;0.18;74.86;100246.22;5071896;28;20506;-68
2024/03/20 04:49:36;;;;;;;8.45;4.53;;;;;;;0.10;74.88;100250.84;5055442;28;20051;-68
2024/03/20 04:52:04;;;;;;;8.50;2.35;;;;;;;-0.06;74.67;100234.19;5072229;28;20522;-68
2024/03/20 04:54:32;;;;;;;0.68;0.68;;;;;;;0.02;74.83;100251.28;5071924;28;20086;-69
2024/03/20 04:57:01;;;;;;;2.22;1.95;;;;;;;0.07;75.21;100259.91;5072048;28;20086;-68
2024/03/20 04:59:28;;;;;;;2.55;2.03;;;;;;;0.09;75.55;100258.31;5071942;28;20462;-68
2024/03/20 05:01:56;;;;;;;2.70;2.50;;;;;;;0.06;75.27;100265.69;5073378;28;20449;-68
2024/03/20 05:04:24;;;;;;;2.38;2.17;;;;;;;0.02;75.94;100262.19;5075995;28;20479;-67
2024/03/20 05:06:52;;;;;;;1.45;1.35;;;;;;;0.03;75.56;100263.88;5075979;28;20044;-67
2024/03/20 05:09:20;;;;;;;1.63;1.52;;;;;;;-0.01;75.74;100260.38;5075748;28;20048;-67
2024/03/20 05:11:48;;;;;;;0.80;0.80;;;;;;;-0.03;75.99;100266.97;5075422;28;20559;-68
2024/03/20 05:14:17;;;;;;;5.90;2.80;;;;;;;-0.03;76.10;100273.63;5075701;28;20449;-67
2024/03/20 05:16:45;;;;;;;1.23;1.13;;;;;;;-0.06;76.19;100269.31;5058772;28;20071;-69
2024/03/20 05:19:13;;;;;;;2.47;2.05;;;;;;;-0.12;76.17;100274.00;5075707;28;20055;-68
2024/03/20 05:21:40;;;;;;;11.27;2.60;;;;;;;-0.05;76.65;100261.00;5075603;28;20048;-67
2024/03/20 05:24:08;;;;;;;2.22;2.08;;;;;;;-0.13;76.65;100253.88;5075516;28;20042;-68
2024/03/20 05:26:35;;;;;;;4.13;2.97;;;;;;;-0.02;77.06;100271.19;5075326;28;20036;-68
2024/03/20 05:29:03;;;;;;;1.92;1.77;;;;;;;-0.02;76.64;100256.13;5075256;28;20043;-68
2024/03/20 05:31:31;;;;;;;1.60;1.50;;;;;;;0.01;76.49;100270.47;5075131;28;20037;-67
2024/03/20 05:33:59;;;;;;;1.95;1.85;;;;;;;-0.03;77.12;100253.56;5075356;28;20037;-67
2024/03/20 05:36:26;;;;;;;3.58;2.97;;;;;;;0.12;77.04;100271.88;5075068;28;20059;-67
2024/03/20 05:38:54;;;;;;;2.75;2.55;;;;;;;0.18;76.72;100268.81;5075235;28;20047;-67
2024/03/20 05:41:22;;;;;;;3.40;1.73;;;;;;;0.29;76.97;100282.78;5058656;28;20571;-67
2024/03/20 05:43:51;;;;;;;0.88;0.88;;;;;;;0.44;77.05;100280.97;5075203;28;20090;-67
2024/03/20 05:46:17;;;;;;;7.13;3.70;;;;;;;0.51;76.86;100281.38;5074903;28;20549;-67
2024/03/20 05:48:47;;;;;;;3.33;2.30;;;;;;;0.65;76.68;100287.03;5058309;28;20040;-67
2024/03/20 05:51:13;;;;;;;1.48;1.38;;;;;;;0.77;76.44;100282.59;5075083;28;20376;-67
2024/03/20 05:53:41;;;;;;;4.93;4.55;;;;;;;0.84;76.82;100279.59;5058225;28;20037;-66
2024/03/20 05:56:08;;;;;;;8.82;3.70;;;;;;;1.05;76.40;100283.13;5074438;28;20041;-66
2024/03/20 05:58:36;;;;;;;1.73;1.50;;;;;;;1.22;76.65;100287.25;5074835;28;20044;-66
2024/03/20 06:01:03;;;;;;;1.05;1.02;;;;;;;1.28;76.26;100290.06;5074805;28;20037;-66
2024/03/20 06:03:30;;;;;;;1.85;0.90;;;;;;;1.39;75.61;100289.69;5074808;28;20039;-67
2024/03/20 06:05:58;;;;;;;2.50;2.10;;;;;;;1.44;75.44;100283.22;5074989;28;20067;-67
2024/03/20 06:08:26;;;;;;;3.58;2.00;;;;;;;1.59;75.40;100289.78;5057830;28;20043;-67
2024/03/20 06:10:55;;;;;;;0.57;0.57;;;;;;;1.74;74.79;100284.56;5074557;28;20041;-67
2024/03/20 06:13:22;;;;;;;0.75;0.75;;;;;;;1.82;74.67;100283.25;5057185;28;20041;-67
2024/03/20 06:15:49;;;;;;;2.17;1.67;;;;;;;1.99;74.08;100283.16;5057952;28;20078;-67
2024/03/20 06:18:17;;;;;;;11.27;3.22;;;;;;;2.13;74.28;100291.31;5074703;28;20036;-68
2024/03/20 06:20:44;;;;;;;2.47;1.77;;;;;;;2.27;73.79;100290.25;5074314;28;20032;-67
2024/03/20 06:23:13;;;;;;;8.20;3.50;;;;;;;2.38;73.46;100294.06;5074088;28;20044;-67
2024/03/20 06:25:40;;;;;;;1.15;0.70;;;;;;;2.45;73.63;100292.63;5074290;28;20124;-67
2024/03/20 06:28:07;;;;;;;0.50;0.50;;;;;;;2.52;72.80;100300.50;5074343;28;20083;-67
2024/03/20 06:30:34;;;;;;;2.65;2.22;;;;;;;2.63;72.38;100306.00;5057590;28;20075;-67
2024/03/20 06:33:02;;;;;;;2.30;2.10;;;;;;;2.75;72.53;100303.13;5074398;28;20036;-67
2024/03/20 06:35:29;;;;;;;3.97;2.72;;;;;;;2.87;72.06;100301.09;5074127;28;20037;-67
2024/03/20 06:37:57;;;;;;;1.13;1.05;;;;;;;2.99;71.80;100296.53;5057077;28;20033;-67
2024/03/20 06:40:32;;;;;;;2.83;0.95;;;;;;;3.09;70.42;100296.94;5074072;28;20582;-67
2024/03/20 06:43:02;;;;;;;2.00;1.90;;;;;;;3.18;70.70;100298.94;5057353;28;20056;-66
2024/03/20 06:45:33;;;;;;;2.33;2.10;;;;;;;3.28;70.61;100290.94;5074015;28;20053;-67
2024/03/20 06:48:01;;;;;;;2.63;1.90;;;;;;;3.44;69.53;100305.84;5040503;28;20052;-66
2024/03/20 06:50:28;;;;;;;3.13;2.92;;;;;;;3.59;70.20;100313.13;5073402;28;20045;-66
2024/03/20 06:52:57;;;;;;;4.63;2.95;;;;;;;3.66;69.32;100300.78;5056916;28;20498;-67
2024/03/20 06:55:26;;;;;;;1.27;1.17;;;;;;;3.72;69.09;100306.06;5056798;28;20057;-66
2024/03/20 06:57:54;;;;;;;2.45;2.25;;;;;;;3.73;68.75;100310.31;5073717;28;20037;-66
2024/03/20 07:00:21;;;;;;;1.30;1.23;;;;;;;3.85;69.54;100298.13;5073561;28;20090;-67
2024/03/20 07:02:50;;;;;;;2.83;1.67;;;;;;;4.10;69.08;100306.56;5056486;28;20072;-66
2024/03/20 07:05:17;;;;;;;2.58;2.35;;;;;;;4.21;69.10;100302.72;5073460;28;20036;-67
2024/03/20 07:07:45;;;;;;;1.80;1.70;;;;;;;4.35;67.99;100312.50;5073066;28;20556;-66
2024/03/20 07:10:12;;;;;;;2.22;2.03;;;;;;;4.52;68.31;100310.53;5073454;28;20050;-66
2024/03/20 07:12:42;;;;;;;1.58;1.23;;;;;;;4.53;67.59;100322.38;5073001;28;20402;-67
2024/03/20 07:15:10;;;;;;;0.60;0.60;;;;;;;4.74;67.42;100318.03;5073545;28;20068;-67
2024/03/20 07:17:39;;;;;;;3.85;2.03;;;;;;;4.90;66.98;100314.31;5059448;28;20048;-66
2024/03/20 07:20:09;;;;;;;0.80;0.80;;;;;;;5.06;67.13;100317.38;5093716;28;20126;-66
2024/03/20 07:22:37;;;;;;;5.57;2.97;;;;;;;5.18;66.62;100324.50;5093447;28;20061;-65
2024/03/20 07:25:07;;;;;;;3.30;1.95;;;;;;;5.29;66.47;100323.16;5092535;28;20508;-66
2024/03/20 07:27:35;;;;;;;1.75;1.65;;;;;;;5.25;66.00;100318.81;5093321;28;20135;-66
2024/03/20 07:30:06;;;;;;;0.90;0.90;;;;;;;5.43;66.33;100317.69;5093282;28;20085;-66
2024/03/20 07:32:35;;;;;;;1.77;1.15;;;;;;;5.37;65.53;100317.50;5093510;28;20094;-65
2024/03/20 07:35:02;;;;;;;1.67;1.58;;;;;;;5.51;65.28;100317.06;5093214;28;20055;-66
2024/03/20 07:37:31;;;;;;;0.90;0.90;;;;;;;5.80;65.54;100321.31;5092880;28;20498;-67
2024/03/20 07:39:58;;;;;;;4.00;2.15;;;;;;;5.87;65.38;100308.03;5093117;28;20074;-66
2024/03/20 07:42:27;;;;;;;2.60;2.05;;;;;;;6.13;65.40;100306.19;5093425;28;20127;-66
2024/03/20 07:44:56;;;;;;;1.80;1.70;;;;;;;6.26;64.53;100311.66;5076232;28;20048;-66
2024/03/20 07:47:25;;;;;;;2.05;1.40;;;;;;;6.27;64.52;100300.69;5076195;28;20036;-66
2024/03/20 07:49:52;;;;;;;1.67;1.55;;;;;;;6.36;63.85;100305.16;5092813;28;20566;-66
2024/03/20 07:52:20;;;;;;;3.15;2.78;;;;;;;6.54;63.93;100306.47;5076059;28;20040;-67
2024/03/20 07:54:46;;;;;;;1.23;0.80;;;;;;;6.69;63.71;100306.84;5092398;28;20082;-67
2024/03/20 07:57:14;;;;;;;1.98;1.70;;;;;;;6.73;62.64;100313.72;5092760;28;20043;-67
2024/03/20 07:59:41;;;;;;;3.17;2.50;;;;;;;6.83;61.62;100303.78;5092471;28;20044;-67
2024/03/20 08:02:09;;;;;;;1.33;1.23;;;;;;;6.77;60.68;100311.25;5092488;28;20127;-67
2024/03/20 08:04:38;;;;;;;1.60;1.33;;;;;;;6.96;60.97;100305.81;5075852;28;20452;-66
2024/03/20 08:07:06;;;;;;;3.83;2.28;;;;;;;7.12;61.54;100308.75;5092803;28;20044;-67
2024/03/20 08:09:33;;;;;;;2.08;1.52;;;;;;;7.29;60.71;100306.59;5075908;28;20051;-67
2024/03/20 08:12:01;;;;;;;2.63;1.88;;;;;;;7.29;60.33;100312.50;5092824;28;20494;-67
2024/03/20 08:14:28;;;;;;;0.90;0.90;;;;;;;7.44;60.36;100317.06;5075815;28;20048;-67
2024/03/20 08:16:55;;;;;;;2.35;2.15;;;;;;;7.56;59.19;100309.69;5075706;28;20116;-67
2024/03/20 08:19:22;;;;;;;0.82;0.80;;;;;;;7.73;59.18;100304.97;5092634;28;20036;-67
2024/03/20 08:21:51;;;;;;;2.75;2.28;;;;;;;7.80;58.84;100307.66;5075705;28;20074;-67
2024/03/20 08:24:18;;;;;;;1.58;1.40;;;;;;;7.77;57.95;100312.72;5092530;28;20052;-67
2024/03/20 08:26:46;;;;;;;2.85;1.33;;;;;;;7.87;58.62;100313.75;5092499;28;20563;-67
2024/03/20 08:29:12;;;;;;;1.20;1.10;;;;;;;7.97;58.06;100280.91;5092630;28;20040;-67
2024/03/20 08:31:40;;;;;;;3.53;1.83;;;;;;;8.24;58.35;100295.81;5092297;28;20086;-67
2024/03/20 08:34:07;;;;;;;2.88;1.52;;;;;;;8.19;57.18;100292.34;5092010;28;20387;-68
2024/03/20 08:36:35;;;;;;;2.35;2.17;;;;;;;8.27;57.95;100278.13;5093128;28;20036;-67
2024/03/20 08:39:03;;;;;;;4.28;2.70;;;;;;;8.55;58.57;100287.94;5096485;28;20033;-67
2024/03/20 08:41:31;;;;;;;1.85;1.63;;;;;;;8.54;56.64;100280.28;5096411;28;20039;-66
2024/03/20 08:43:58;;;;;;;1.10;1.02;;;;;;;8.42;56.17;100290.25;5096589;28;20040;-67
2024/03/20 08:46:26;;;;;;;2.92;2.22;;;;;;;8.52;56.96;100298.06;5096519;28;20047;-67
2024/03/20 08:48:54;;;;;;;2.17;1.97;;;;;;;8.54;55.83;100283.66;5096338;28;20044;-66
2024/03/20 08:51:21;;;;;;;1.70;1.60;;;;;;;8.53;56.21;100283.66;5079392;28;20040;-67
2024/03/20 08:53:48;;;;;;;1.55;1.40;;;;;;;8.63;56.45;100285.53;5096094;28;20046;-66
2024/03/20 08:56:18;;;;;;;1.13;1.00;;;;;;;8.61;57.08;100261.75;5095962;28;20044;-66
2024/03/20 08:58:45;;;;;;;4.18;2.63;;;;;;;8.73;57.26;100272.97;5096193;28;20394;-67
2024/03/20 09:01:13;;;;;;;2.92;2.00;;;;;;;8.77;56.80;100284.94;5079576;28;20037;-67
2024/03/20 09:03:39;;;;;;;1.13;1.02;;;;;;;9.00;56.90;100287.81;5095757;28;20502;-67
2024/03/20 09:06:07;;;;;;;1.77;1.67;;;;;;;9.12;56.91;100290.53;5095629;28;20050;-67
2024/03/20 09:08:34;;;;;;;3.55;2.05;;;;;;;9.34;57.06;100287.47;5095921;28;20063;-67
2024/03/20 09:11:02;;;;;;;2.90;2.20;;;;;;;9.47;56.21;100274.91;5095984;28;20040;-67
2024/03/20 09:13:31;;;;;;;2.67;1.30;;;;;;;9.57;55.07;100276.75;5078713;28;20422;-66
2024/03/20 09:15:58;;;;;;;1.42;1.33;;;;;;;9.75;54.94;100282.06;5095753;28;20036;-67
2024/03/20 09:18:26;;;;;;;1.27;1.17;;;;;;;9.99;55.39;100283.22;5096185;28;20097;-67
2024/03/20 09:20:54;;;;;;;1.63;1.52;;;;;;;10.10;54.70;100286.72;5095744;28;20036;-67
2024/03/20 09:23:22;;;;;;;3.78;2.85;;;;;;;10.18;54.78;100274.09;5096007;28;20094;-67
2024/03/20 09:25:49;;;;;;;1.50;1.42;;;;;;;10.38;54.79;100277.69;5096081;28;20066;-67
2024/03/20 09:28:16;;;;;;;4.28;1.77;;;;;;;10.46;54.42;100270.97;5078747;28;20040;-67
2024/03/20 09:30:45;;;;;;;2.33;2.15;;;;;;;10.60;54.90;100279.63;5078812;28;20040;-67
2024/03/20 09:33:12;;;;;;;0.68;0.68;;;;;;;10.72;54.75;100274.59;5078558;28;20047;-67
2024/03/20 09:35:39;;;;;;;2.83;2.55;;;;;;;10.74;53.03;100266.97;5095786;28;20048;-67
2024/03/20 09:38:06;;;;;;;1.70;1.60;;;;;;;10.83;52.71;100267.03;5095104;28;20033;-67
2024/03/20 09:40:35;;;;;;;5.70;1.90;;;;;;;10.95;52.43;100271.34;5095053;28;20032;-67
2024/03/20 09:43:05;;;;;;;0.80;0.80;;;;;;;11.11;51.80;100273.19;5095371;28;20498;-67
2024/03/20 09:45:33;;;;;;;2.13;1.88;;;;;;;11.23;50.14;100275.78;5095415;28;20048;-67
2024/03/20 09:48:02;;;;;;;5.07;2.63;;;;;;;11.13;49.02;100269.78;5094124;28;20047;-66
2024/03/20 09:50:31;;;;;;;5.30;2.13;;;;;;;11.33;48.97;100269.91;5095169;28;20043;-67
2024/03/20 09:52:58;;;;;;;1.13;1.02;;;;;;;11.52;48.79;100271.72;5095053;28;20517;-66
2024/03/20 09:55:27;;;;;;;1.48;1.38;;;;;;;11.76;49.57;100266.72;5094831;28;20119;-67
2024/03/20 09:57:53;;;;;;;2.47;1.52;;;;;;;11.87;50.10;100265.09;5078043;28;20040;-67
2024/03/20 10:00:22;;;;;;;1.98;1.52;;;;;;;11.92;49.46;100268.53;5078178;28;20050;-67
2024/03/20 10:02:49;;;;;;;1.23;1.13;;;;;;;11.88;49.63;100251.44;5078579;28;20044;-67
2024/03/20 10:05:19;;;;;;;1.48;1.38;;;;;;;12.10;50.02;100257.47;5094905;28;20046;-67
2024/03/20 10:07:48;;;;;;;1.95;1.85;;;;;;;12.27;50.21;100260.06;5094786;28;20055;-67
2024/03/20 10:10:17;;;;;;;0.60;0.60;;;;;;;12.32;48.59;100253.25;5094801;28;20040;-67
2024/03/20 10:12:46;;;;;;;1.42;1.33;;;;;;;12.34;47.11;100251.53;5077634;28;20123;-67
2024/03/20 10:15:14;;;;;;;2.03;1.45;;;;;;;12.27;46.93;100245.56;5094771;28;20040;-66
2024/03/20 10:17:44;;;;;;;1.63;1.52;;;;;;;12.25;46.76;100241.28;5094298;28;20040;-67
2024/03/20 10:20:16;;;;;;;1.52;1.42;;;;;;;12.25;46.30;100241.28;5077595;28;20036;-67
2024/03/20 10:22:45;;;;;;;1.95;1.58;;;;;;;12.36;46.42;100235.31;5094451;28;20036;-67
2024/03/20 10:25:16;;;;;;;;;;;;;;;12.53;46.11;100243.00;5094590;28;20513;-67
2024/03/20 10:27:46;;;;;;;1.70;1.58;;;;;;;12.46;45.58;100242.16;5094139;28;19927;-67
2024/03/20 10:30:16;;;;;;;1.15;1.05;;;;;;;12.29;45.33;100238.72;5094415;28;20036;-67
2024/03/20 10:32:47;;;;;;;4.00;2.83;;;;;;;12.37;45.76;100231.94;5077286;28;20056;-67
2024/03/20 10:35:16;;;;;;;2.38;2.17;;;;;;;12.51;45.84;100234.47;5077555;28;20080;-67
2024/03/20 10:37:46;;;;;;;1.10;1.00;;;;;;;12.70;46.88;100236.19;5059850;28;20510;-67
2024/03/20 10:40:19;;;;;;;2.17;2.00;;;;;;;12.78;46.89;100224.25;5076556;28;20034;-66
2024/03/20 10:42:47;;;;;;;3.90;2.83;;;;;;;12.92;46.22;100222.50;5091273;28;20513;-67
2024/03/20 10:45:17;;;;;;;1.17;1.08;;;;;;;13.17;45.68;100223.34;5076830;28;20078;-67
2024/03/20 10:47:46;;;;;;;1.58;1.48;;;;;;;13.24;44.44;100215.66;5091342;28;20066;-66
2024/03/20 10:50:15;;;;;;;2.58;1.85;;;;;;;13.01;43.63;100202.00;5093702;28;20036;-67
2024/03/20 10:52:45;;;;;;;2.63;1.55;;;;;;;13.03;43.28;100219.94;5074282;28;20044;-66
2024/03/20 10:55:15;;;;;;;1.55;1.42;;;;;;;13.06;43.43;100215.69;5072981;28;20384;-66
2024/03/20 10:57:46;;;;;;;3.97;1.60;;;;;;;13.16;43.59;100212.25;5073737;28;20041;-67
2024/03/20 11:00:16;;;;;;;;;;;;;;;13.31;42.94;100211.34;5074110;28;20408;-66
2024/03/20 11:02:44;;;;;;;2.08;1.88;;;;;;;13.25;42.54;100207.09;5086395;28;19997;-67
2024/03/20 11:05:48;;;;;;;1.20;1.10;;;;;;;13.37;42.81;100198.50;5093764;28;20036;-67
2024/03/20 11:08:18;;;;;;;2.28;2.08;;;;;;;13.53;42.01;100195.03;5092149;28;20044;-66
2024/03/20 11:10:49;;;;;;;1.08;1.00;;;;;;;13.41;41.75;100183.09;5093587;28;20513;-67
2024/03/20 11:13:20;;;;;;;1.35;1.13;;;;;;;13.60;41.83;100188.16;5093629;28;20118;-67
2024/03/20 11:15:50;;;;;;;2.05;1.50;;;;;;;13.69;41.75;100194.09;5073288;28;20044;-67
2024/03/20 11:18:21;;;;;;;0.75;0.75;;;;;;;13.83;41.64;100196.56;5073022;28;20040;-67
2024/03/20 11:20:49;;;;;;;7.00;1.50;;;;;;;13.86;40.70;100186.28;5073375;28;20075;-67
2024/03/20 11:23:26;;;;;;;1.48;1.23;;;;;;;13.89;40.59;100196.56;5072872;28;20043;-67
2024/03/20 11:25:56;;;;;;;1.63;0.98;;;;;;;13.93;40.17;100193.09;5073125;28;20413;-67
2024/03/20 11:28:22;;;;;;;2.13;1.95;;;;;;;13.88;39.34;100189.69;5073148;28;20037;-67
2024/03/20 11:30:51;;;;;;;1.67;1.13;;;;;;;13.74;38.69;100191.50;5073202;28;20494;-67
2024/03/20 11:33:18;;;;;;;0.82;0.82;;;;;;;13.70;39.16;100189.81;5056200;28;20036;-67
2024/03/20 11:35:48;;;;;;;2.22;1.45;;;;;;;13.71;38.53;100196.63;5072358;28;20110;-67
2024/03/20 11:38:18;;;;;;;1.27;1.17;;;;;;;13.60;39.38;100185.59;5056163;28;20079;-67